sensor_id;sensor_type;location;lat;lon;timestamp;P1;durP1;ratioP1;P2;durP2;ratioP2
31770;SDS011;18343;50.152;8.182;2023-03-14T00:01:26;7.28;;;3.67;;
31770;SDS011;18343;50.152;8.182;2023-03-14T00:04:11;7.65;;;4.18;;
31770;SDS011;18343;50.152;8.182;2023-03-14T00:06:56;4.47;;;3.40;;
31770;SDS011;18343;50.152;8.182;2023-03-14T00:09:42;5.60;;;3.50;;
31770;SDS011;18343;50.152;8.182;2023-03-14T00:12:27;8.18;;;4.07;;
31770;SDS011;18343;50.152;8.182;2023-03-14T00:15:12;8.10;;;4.68;;
31770;SDS011;18343;50.152;8.182;2023-03-14T00:17:57;7.05;;;4.10;;
31770;SDS011;18343;50.152;8.182;2023-03-14T00:20:41;5.00;;;3.70;;
31770;SDS011;18343;50.152;8.182;2023-03-14T00:23:26;8.40;;;3.95;;
31770;SDS011;18343;50.152;8.182;2023-03-14T00:26:13;8.50;;;4.07;;
31770;SDS011;18343;50.152;8.182;2023-03-14T00:29:00;9.48;;;4.13;;
31770;SDS011;18343;50.152;8.182;2023-03-14T00:31:44;7.82;;;3.38;;
31770;SDS011;18343;50.152;8.182;2023-03-14T00:34:29;7.45;;;3.88;;
31770;SDS011;18343;50.152;8.182;2023-03-14T00:37:14;7.18;;;3.75;;
31770;SDS011;18343;50.152;8.182;2023-03-14T00:39:59;10.80;;;3.95;;
31770;SDS011;18343;50.152;8.182;2023-03-14T00:42:45;11.15;;;4.68;;
31770;SDS011;18343;50.152;8.182;2023-03-14T00:45:30;10.23;;;3.22;;
31770;SDS011;18343;50.152;8.182;2023-03-14T00:48:14;10.57;;;3.70;;
31770;SDS011;18343;50.152;8.182;2023-03-14T00:50:59;6.10;;;3.97;;
31770;SDS011;18343;50.152;8.182;2023-03-14T00:53:44;8.73;;;3.80;;
31770;SDS011;18343;50.152;8.182;2023-03-14T00:56:29;10.20;;;4.10;;
31770;SDS011;18343;50.152;8.182;2023-03-14T00:59:16;7.13;;;3.50;;
31770;SDS011;18343;50.152;8.182;2023-03-14T01:02:00;7.68;;;3.47;;
31770;SDS011;18343;50.152;8.182;2023-03-14T01:04:47;6.90;;;3.08;;
31770;SDS011;18343;50.152;8.182;2023-03-14T01:07:32;6.53;;;3.00;;
31770;SDS011;18343;50.152;8.182;2023-03-14T01:10:17;14.30;;;3.58;;
31770;SDS011;18343;50.152;8.182;2023-03-14T01:13:02;6.18;;;3.55;;
31770;SDS011;18343;50.152;8.182;2023-03-14T01:15:48;9.00;;;3.53;;
31770;SDS011;18343;50.152;8.182;2023-03-14T01:18:33;7.47;;;3.80;;
31770;SDS011;18343;50.152;8.182;2023-03-14T01:21:21;9.10;;;4.07;;
31770;SDS011;18343;50.152;8.182;2023-03-14T01:24:11;10.93;;;4.20;;
31770;SDS011;18343;50.152;8.182;2023-03-14T01:26:56;13.90;;;4.43;;
31770;SDS011;18343;50.152;8.182;2023-03-14T01:29:41;5.20;;;3.58;;
31770;SDS011;18343;50.152;8.182;2023-03-14T01:32:27;9.02;;;3.45;;
31770;SDS011;18343;50.152;8.182;2023-03-14T01:35:12;5.63;;;3.10;;
31770;SDS011;18343;50.152;8.182;2023-03-14T01:37:57;7.10;;;3.22;;
31770;SDS011;18343;50.152;8.182;2023-03-14T01:40:42;9.50;;;3.38;;
31770;SDS011;18343;50.152;8.182;2023-03-14T01:43:28;5.78;;;3.00;;
31770;SDS011;18343;50.152;8.182;2023-03-14T01:49:26;9.50;;;3.60;;
31770;SDS011;18343;50.152;8.182;2023-03-14T01:52:14;12.18;;;4.35;;
31770;SDS011;18343;50.152;8.182;2023-03-14T01:55:03;12.07;;;4.18;;
31770;SDS011;18343;50.152;8.182;2023-03-14T01:57:51;9.18;;;3.67;;
31770;SDS011;18343;50.152;8.182;2023-03-14T02:00:42;11.90;;;4.10;;
31770;SDS011;18343;50.152;8.182;2023-03-14T02:03:27;10.68;;;4.45;;
31770;SDS011;18343;50.152;8.182;2023-03-14T02:06:17;17.50;;;5.45;;
31770;SDS011;18343;50.152;8.182;2023-03-14T02:09:07;11.98;;;4.97;;
31770;SDS011;18343;50.152;8.182;2023-03-14T02:11:52;6.85;;;3.85;;
31770;SDS011;18343;50.152;8.182;2023-03-14T02:14:37;7.38;;;3.80;;
31770;SDS011;18343;50.152;8.182;2023-03-14T02:17:23;12.20;;;4.47;;
31770;SDS011;18343;50.152;8.182;2023-03-14T02:20:22;8.75;;;3.70;;
31770;SDS011;18343;50.152;8.182;2023-03-14T02:23:20;12.00;;;3.83;;
31770;SDS011;18343;50.152;8.182;2023-03-14T02:26:17;4.38;;;2.53;;
31770;SDS011;18343;50.152;8.182;2023-03-14T02:29:07;7.30;;;3.72;;
31770;SDS011;18343;50.152;8.182;2023-03-14T02:31:55;11.50;;;4.57;;
31770;SDS011;18343;50.152;8.182;2023-03-14T02:34:39;13.48;;;4.03;;
31770;SDS011;18343;50.152;8.182;2023-03-14T02:37:27;10.85;;;4.00;;
31770;SDS011;18343;50.152;8.182;2023-03-14T02:40:19;9.48;;;3.70;;
31770;SDS011;18343;50.152;8.182;2023-03-14T02:43:04;8.07;;;3.00;;
31770;SDS011;18343;50.152;8.182;2023-03-14T02:45:50;10.63;;;3.60;;
31770;SDS011;18343;50.152;8.182;2023-03-14T02:48:37;7.65;;;3.45;;
31770;SDS011;18343;50.152;8.182;2023-03-14T02:51:26;12.15;;;3.30;;
31770;SDS011;18343;50.152;8.182;2023-03-14T02:54:12;13.93;;;3.15;;
31770;SDS011;18343;50.152;8.182;2023-03-14T02:56:59;9.88;;;3.30;;
31770;SDS011;18343;50.152;8.182;2023-03-14T02:59:43;10.95;;;3.05;;
31770;SDS011;18343;50.152;8.182;2023-03-14T03:02:29;9.60;;;3.05;;
31770;SDS011;18343;50.152;8.182;2023-03-14T03:05:14;10.93;;;3.10;;
31770;SDS011;18343;50.152;8.182;2023-03-14T03:07:59;7.80;;;2.90;;
31770;SDS011;18343;50.152;8.182;2023-03-14T03:10:44;8.88;;;3.72;;
31770;SDS011;18343;50.152;8.182;2023-03-14T03:13:28;12.38;;;2.90;;
31770;SDS011;18343;50.152;8.182;2023-03-14T03:16:13;8.05;;;2.60;;
31770;SDS011;18343;50.152;8.182;2023-03-14T03:18:59;9.93;;;3.08;;
31770;SDS011;18343;50.152;8.182;2023-03-14T03:21:43;7.82;;;2.50;;
31770;SDS011;18343;50.152;8.182;2023-03-14T03:24:28;5.38;;;2.10;;
31770;SDS011;18343;50.152;8.182;2023-03-14T03:27:12;6.38;;;2.10;;
31770;SDS011;18343;50.152;8.182;2023-03-14T03:29:57;9.48;;;2.45;;
31770;SDS011;18343;50.152;8.182;2023-03-14T03:32:41;17.60;;;3.55;;
31770;SDS011;18343;50.152;8.182;2023-03-14T03:35:28;6.65;;;2.40;;
31770;SDS011;18343;50.152;8.182;2023-03-14T03:38:12;9.25;;;2.72;;
31770;SDS011;18343;50.152;8.182;2023-03-14T03:40:57;7.90;;;1.80;;
31770;SDS011;18343;50.152;8.182;2023-03-14T03:43:42;6.82;;;1.90;;
31770;SDS011;18343;50.152;8.182;2023-03-14T03:46:26;8.63;;;2.08;;
31770;SDS011;18343;50.152;8.182;2023-03-14T03:49:11;5.65;;;2.17;;
31770;SDS011;18343;50.152;8.182;2023-03-14T03:51:59;4.18;;;1.80;;
31770;SDS011;18343;50.152;8.182;2023-03-14T03:54:44;5.00;;;2.25;;
31770;SDS011;18343;50.152;8.182;2023-03-14T03:57:28;5.65;;;2.08;;
31770;SDS011;18343;50.152;8.182;2023-03-14T04:00:13;4.60;;;2.65;;
31770;SDS011;18343;50.152;8.182;2023-03-14T04:02:58;10.57;;;2.08;;
31770;SDS011;18343;50.152;8.182;2023-03-14T04:05:43;10.70;;;2.35;;
31770;SDS011;18343;50.152;8.182;2023-03-14T04:08:29;6.07;;;2.60;;
31770;SDS011;18343;50.152;8.182;2023-03-14T04:11:14;8.02;;;2.60;;
31770;SDS011;18343;50.152;8.182;2023-03-14T04:13:58;9.07;;;2.40;;
31770;SDS011;18343;50.152;8.182;2023-03-14T04:16:43;9.90;;;1.75;;
31770;SDS011;18343;50.152;8.182;2023-03-14T04:19:27;8.85;;;2.22;;
31770;SDS011;18343;50.152;8.182;2023-03-14T04:22:12;6.90;;;2.35;;
31770;SDS011;18343;50.152;8.182;2023-03-14T04:24:57;11.77;;;2.90;;
31770;SDS011;18343;50.152;8.182;2023-03-14T04:27:42;6.07;;;2.08;;
31770;SDS011;18343;50.152;8.182;2023-03-14T04:30:27;9.45;;;1.90;;
31770;SDS011;18343;50.152;8.182;2023-03-14T04:33:11;6.80;;;2.03;;
31770;SDS011;18343;50.152;8.182;2023-03-14T04:35:56;11.50;;;2.30;;
31770;SDS011;18343;50.152;8.182;2023-03-14T04:38:40;6.22;;;2.25;;
31770;SDS011;18343;50.152;8.182;2023-03-14T04:41:26;9.30;;;2.28;;
31770;SDS011;18343;50.152;8.182;2023-03-14T04:44:11;12.20;;;2.80;;
31770;SDS011;18343;50.152;8.182;2023-03-14T04:46:55;9.77;;;3.33;;
31770;SDS011;18343;50.152;8.182;2023-03-14T04:49:40;8.98;;;3.92;;
31770;SDS011;18343;50.152;8.182;2023-03-14T04:52:24;8.05;;;3.58;;
31770;SDS011;18343;50.152;8.182;2023-03-14T04:55:11;13.05;;;3.63;;
31770;SDS011;18343;50.152;8.182;2023-03-14T04:57:57;11.52;;;5.15;;
31770;SDS011;18343;50.152;8.182;2023-03-14T05:00:41;7.85;;;3.10;;
31770;SDS011;18343;50.152;8.182;2023-03-14T05:03:26;12.05;;;3.15;;
31770;SDS011;18343;50.152;8.182;2023-03-14T05:06:11;9.68;;;2.45;;
31770;SDS011;18343;50.152;8.182;2023-03-14T05:08:55;7.10;;;2.45;;
31770;SDS011;18343;50.152;8.182;2023-03-14T05:11:40;5.40;;;2.40;;
31770;SDS011;18343;50.152;8.182;2023-03-14T05:14:26;5.75;;;2.20;;
31770;SDS011;18343;50.152;8.182;2023-03-14T05:17:11;7.38;;;2.83;;
31770;SDS011;18343;50.152;8.182;2023-03-14T05:19:56;4.88;;;2.30;;
31770;SDS011;18343;50.152;8.182;2023-03-14T05:22:41;5.47;;;2.47;;
31770;SDS011;18343;50.152;8.182;2023-03-14T05:25:26;7.25;;;2.67;;
31770;SDS011;18343;50.152;8.182;2023-03-14T05:28:10;4.75;;;2.30;;
31770;SDS011;18343;50.152;8.182;2023-03-14T05:30:56;6.97;;;2.58;;
31770;SDS011;18343;50.152;8.182;2023-03-14T05:33:41;8.13;;;2.13;;
31770;SDS011;18343;50.152;8.182;2023-03-14T05:36:25;3.15;;;1.63;;
31770;SDS011;18343;50.152;8.182;2023-03-14T05:39:10;9.85;;;1.80;;
31770;SDS011;18343;50.152;8.182;2023-03-14T05:41:55;3.67;;;1.48;;
31770;SDS011;18343;50.152;8.182;2023-03-14T05:44:39;6.07;;;1.60;;
31770;SDS011;18343;50.152;8.182;2023-03-14T05:47:28;3.75;;;1.42;;
31770;SDS011;18343;50.152;8.182;2023-03-14T05:50:13;4.80;;;1.10;;
31770;SDS011;18343;50.152;8.182;2023-03-14T05:52:57;4.82;;;1.20;;
31770;SDS011;18343;50.152;8.182;2023-03-14T05:55:45;4.95;;;1.35;;
31770;SDS011;18343;50.152;8.182;2023-03-14T05:58:29;5.53;;;1.42;;
31770;SDS011;18343;50.152;8.182;2023-03-14T06:01:14;4.80;;;1.00;;
31770;SDS011;18343;50.152;8.182;2023-03-14T06:04:00;3.95;;;1.13;;
31770;SDS011;18343;50.152;8.182;2023-03-14T06:06:46;1.92;;;0.90;;
31770;SDS011;18343;50.152;8.182;2023-03-14T06:09:31;2.03;;;1.15;;
31770;SDS011;18343;50.152;8.182;2023-03-14T06:12:15;3.22;;;0.70;;
31770;SDS011;18343;50.152;8.182;2023-03-14T06:15:00;1.77;;;0.80;;
31770;SDS011;18343;50.152;8.182;2023-03-14T06:17:45;1.90;;;0.90;;
31770;SDS011;18343;50.152;8.182;2023-03-14T06:20:31;3.58;;;1.00;;
31770;SDS011;18343;50.152;8.182;2023-03-14T06:23:15;2.13;;;0.75;;
31770;SDS011;18343;50.152;8.182;2023-03-14T06:25:59;1.75;;;0.80;;
31770;SDS011;18343;50.152;8.182;2023-03-14T06:28:44;2.65;;;0.88;;
31770;SDS011;18343;50.152;8.182;2023-03-14T06:31:29;9.57;;;0.95;;
31770;SDS011;18343;50.152;8.182;2023-03-14T06:34:13;3.05;;;0.55;;
31770;SDS011;18343;50.152;8.182;2023-03-14T06:37:01;1.92;;;0.88;;
31770;SDS011;18343;50.152;8.182;2023-03-14T06:39:46;4.35;;;0.75;;
31770;SDS011;18343;50.152;8.182;2023-03-14T06:42:31;3.55;;;0.90;;
31770;SDS011;18343;50.152;8.182;2023-03-14T06:45:15;6.13;;;1.20;;
31770;SDS011;18343;50.152;8.182;2023-03-14T06:48:00;7.20;;;1.05;;
31770;SDS011;18343;50.152;8.182;2023-03-14T06:50:45;5.05;;;0.90;;
31770;SDS011;18343;50.152;8.182;2023-03-14T06:53:32;2.50;;;1.10;;
31770;SDS011;18343;50.152;8.182;2023-03-14T06:56:17;2.42;;;0.85;;
31770;SDS011;18343;50.152;8.182;2023-03-14T06:59:01;5.88;;;1.77;;
31770;SDS011;18343;50.152;8.182;2023-03-14T07:01:46;2.17;;;1.00;;
31770;SDS011;18343;50.152;8.182;2023-03-14T07:04:30;2.30;;;0.80;;
31770;SDS011;18343;50.152;8.182;2023-03-14T07:07:15;1.83;;;1.10;;
31770;SDS011;18343;50.152;8.182;2023-03-14T07:10:00;1.60;;;0.90;;
31770;SDS011;18343;50.152;8.182;2023-03-14T07:12:45;7.68;;;1.70;;
31770;SDS011;18343;50.152;8.182;2023-03-14T07:15:29;2.38;;;1.02;;
31770;SDS011;18343;50.152;8.182;2023-03-14T07:18:14;2.25;;;1.02;;
31770;SDS011;18343;50.152;8.182;2023-03-14T07:20:58;2.60;;;1.00;;
31770;SDS011;18343;50.152;8.182;2023-03-14T07:23:43;3.13;;;1.15;;
31770;SDS011;18343;50.152;8.182;2023-03-14T07:26:28;2.03;;;1.02;;
31770;SDS011;18343;50.152;8.182;2023-03-14T07:29:13;2.70;;;0.98;;
31770;SDS011;18343;50.152;8.182;2023-03-14T07:31:57;3.20;;;1.10;;
31770;SDS011;18343;50.152;8.182;2023-03-14T07:34:42;3.20;;;1.40;;
31770;SDS011;18343;50.152;8.182;2023-03-14T07:37:27;1.88;;;0.85;;
31770;SDS011;18343;50.152;8.182;2023-03-14T07:40:12;3.38;;;1.10;;
31770;SDS011;18343;50.152;8.182;2023-03-14T07:42:58;3.85;;;1.00;;
31770;SDS011;18343;50.152;8.182;2023-03-14T07:45:45;3.67;;;0.90;;
31770;SDS011;18343;50.152;8.182;2023-03-14T07:48:30;2.97;;;0.90;;
31770;SDS011;18343;50.152;8.182;2023-03-14T07:51:14;2.60;;;1.00;;
31770;SDS011;18343;50.152;8.182;2023-03-14T07:53:59;5.78;;;1.38;;
31770;SDS011;18343;50.152;8.182;2023-03-14T07:56:43;4.57;;;0.98;;
31770;SDS011;18343;50.152;8.182;2023-03-14T07:59:32;4.60;;;1.20;;
31770;SDS011;18343;50.152;8.182;2023-03-14T08:02:17;7.45;;;1.45;;
31770;SDS011;18343;50.152;8.182;2023-03-14T08:05:01;3.35;;;1.40;;
31770;SDS011;18343;50.152;8.182;2023-03-14T08:07:47;1.65;;;1.08;;
31770;SDS011;18343;50.152;8.182;2023-03-14T08:15:38;2.00;;;0.82;;
31770;SDS011;18343;50.152;8.182;2023-03-14T08:18:22;3.83;;;1.08;;
31770;SDS011;18343;50.152;8.182;2023-03-14T08:21:07;3.67;;;1.10;;
31770;SDS011;18343;50.152;8.182;2023-03-14T08:23:51;1.42;;;1.05;;
31770;SDS011;18343;50.152;8.182;2023-03-14T08:26:36;6.55;;;0.90;;
31770;SDS011;18343;50.152;8.182;2023-03-14T08:29:20;2.08;;;1.45;;
31770;SDS011;18343;50.152;8.182;2023-03-14T08:32:06;4.97;;;1.27;;
31770;SDS011;18343;50.152;8.182;2023-03-14T08:34:51;2.10;;;0.90;;
31770;SDS011;18343;50.152;8.182;2023-03-14T08:37:35;2.50;;;0.93;;
31770;SDS011;18343;50.152;8.182;2023-03-14T08:40:21;4.85;;;1.02;;
31770;SDS011;18343;50.152;8.182;2023-03-14T08:43:05;2.78;;;1.00;;
31770;SDS011;18343;50.152;8.182;2023-03-14T08:45:50;9.25;;;1.45;;
31770;SDS011;18343;50.152;8.182;2023-03-14T08:48:36;3.13;;;1.10;;
31770;SDS011;18343;50.152;8.182;2023-03-14T08:51:20;3.38;;;1.27;;
31770;SDS011;18343;50.152;8.182;2023-03-14T08:54:05;1.55;;;1.10;;
31770;SDS011;18343;50.152;8.182;2023-03-14T08:56:49;4.07;;;1.20;;
31770;SDS011;18343;50.152;8.182;2023-03-14T08:59:34;6.00;;;1.10;;
31770;SDS011;18343;50.152;8.182;2023-03-14T09:02:18;7.00;;;1.45;;
31770;SDS011;18343;50.152;8.182;2023-03-14T09:05:05;0.82;;;0.70;;
31770;SDS011;18343;50.152;8.182;2023-03-14T09:07:51;1.00;;;0.57;;
31770;SDS011;18343;50.152;8.182;2023-03-14T09:10:36;1.33;;;0.80;;
31770;SDS011;18343;50.152;8.182;2023-03-14T09:13:20;1.77;;;1.05;;
31770;SDS011;18343;50.152;8.182;2023-03-14T09:16:05;0.80;;;0.70;;
31770;SDS011;18343;50.152;8.182;2023-03-14T09:18:51;2.47;;;1.08;;
31770;SDS011;18343;50.152;8.182;2023-03-14T09:21:37;1.15;;;0.98;;
31770;SDS011;18343;50.152;8.182;2023-03-14T09:24:22;1.80;;;0.93;;
31770;SDS011;18343;50.152;8.182;2023-03-14T09:27:07;1.50;;;0.98;;
31770;SDS011;18343;50.152;8.182;2023-03-14T09:29:54;2.55;;;1.17;;
31770;SDS011;18343;50.152;8.182;2023-03-14T09:32:39;9.23;;;2.67;;
31770;SDS011;18343;50.152;8.182;2023-03-14T09:35:23;2.25;;;1.10;;
31770;SDS011;18343;50.152;8.182;2023-03-14T09:38:10;1.73;;;1.25;;
31770;SDS011;18343;50.152;8.182;2023-03-14T09:40:54;2.03;;;0.88;;
31770;SDS011;18343;50.152;8.182;2023-03-14T09:43:41;6.93;;;0.90;;
31770;SDS011;18343;50.152;8.182;2023-03-14T09:46:28;2.40;;;0.95;;
31770;SDS011;18343;50.152;8.182;2023-03-14T09:49:16;4.13;;;0.90;;
31770;SDS011;18343;50.152;8.182;2023-03-14T09:52:06;1.48;;;1.20;;
31770;SDS011;18343;50.152;8.182;2023-03-14T09:54:59;4.05;;;0.95;;
31770;SDS011;18343;50.152;8.182;2023-03-14T09:57:48;3.20;;;1.00;;
31770;SDS011;18343;50.152;8.182;2023-03-14T10:00:38;1.30;;;1.05;;
31770;SDS011;18343;50.152;8.182;2023-03-14T10:03:27;1.30;;;1.20;;
31770;SDS011;18343;50.152;8.182;2023-03-14T10:06:15;7.15;;;1.60;;
31770;SDS011;18343;50.152;8.182;2023-03-14T10:08:59;2.25;;;1.40;;
31770;SDS011;18343;50.152;8.182;2023-03-14T10:11:47;3.35;;;1.77;;
31770;SDS011;18343;50.152;8.182;2023-03-14T10:14:32;1.98;;;1.45;;
31770;SDS011;18343;50.152;8.182;2023-03-14T10:17:20;2.22;;;1.40;;
31770;SDS011;18343;50.152;8.182;2023-03-14T10:20:05;5.13;;;1.52;;
31770;SDS011;18343;50.152;8.182;2023-03-14T10:22:50;1.20;;;1.10;;
31770;SDS011;18343;50.152;8.182;2023-03-14T10:25:36;4.80;;;1.20;;
31770;SDS011;18343;50.152;8.182;2023-03-14T10:28:24;4.00;;;1.60;;
31770;SDS011;18343;50.152;8.182;2023-03-14T10:31:12;1.60;;;1.13;;
31770;SDS011;18343;50.152;8.182;2023-03-14T10:33:58;1.90;;;1.42;;
31770;SDS011;18343;50.152;8.182;2023-03-14T10:36:45;4.68;;;1.40;;
31770;SDS011;18343;50.152;8.182;2023-03-14T10:39:32;2.08;;;1.60;;
31770;SDS011;18343;50.152;8.182;2023-03-14T10:42:29;2.65;;;1.40;;
31770;SDS011;18343;50.152;8.182;2023-03-14T10:45:25;2.42;;;1.08;;
31770;SDS011;18343;50.152;8.182;2023-03-14T10:48:21;1.52;;;0.90;;
31770;SDS011;18343;50.152;8.182;2023-03-14T10:51:07;2.25;;;1.42;;
31770;SDS011;18343;50.152;8.182;2023-03-14T10:53:56;1.00;;;0.80;;
31770;SDS011;18343;50.152;8.182;2023-03-14T10:56:42;2.75;;;1.10;;
31770;SDS011;18343;50.152;8.182;2023-03-14T10:59:27;1.40;;;1.00;;
31770;SDS011;18343;50.152;8.182;2023-03-14T11:02:25;2.58;;;0.70;;
31770;SDS011;18343;50.152;8.182;2023-03-14T11:05:34;5.63;;;0.82;;
31770;SDS011;18343;50.152;8.182;2023-03-14T11:08:27;0.90;;;0.73;;
31770;SDS011;18343;50.152;8.182;2023-03-14T11:11:22;1.50;;;0.80;;
31770;SDS011;18343;50.152;8.182;2023-03-14T11:14:14;2.95;;;0.60;;
31770;SDS011;18343;50.152;8.182;2023-03-14T11:17:11;1.08;;;0.70;;
31770;SDS011;18343;50.152;8.182;2023-03-14T11:23:01;0.95;;;0.70;;
31770;SDS011;18343;50.152;8.182;2023-03-14T11:25:56;1.00;;;0.50;;
31770;SDS011;18343;50.152;8.182;2023-03-14T11:28:54;1.55;;;0.60;;
31770;SDS011;18343;50.152;8.182;2023-03-14T11:31:42;0.80;;;0.50;;
31770;SDS011;18343;50.152;8.182;2023-03-14T11:34:29;3.08;;;0.40;;
31770;SDS011;18343;50.152;8.182;2023-03-14T11:37:25;2.85;;;0.40;;
31770;SDS011;18343;50.152;8.182;2023-03-14T11:40:16;0.45;;;0.20;;
31770;SDS011;18343;50.152;8.182;2023-03-14T11:43:05;3.22;;;0.20;;
31770;SDS011;18343;50.152;8.182;2023-03-14T11:46:01;4.20;;;0.40;;
31770;SDS011;18343;50.152;8.182;2023-03-14T11:48:56;2.55;;;0.30;;
31770;SDS011;18343;50.152;8.182;2023-03-14T11:51:47;0.30;;;0.17;;
31770;SDS011;18343;50.152;8.182;2023-03-14T11:54:38;0.28;;;0.22;;
31770;SDS011;18343;50.152;8.182;2023-03-14T11:57:28;0.17;;;0.10;;
31770;SDS011;18343;50.152;8.182;2023-03-14T12:00:14;0.30;;;0.30;;
31770;SDS011;18343;50.152;8.182;2023-03-14T12:03:04;1.10;;;0.30;;
31770;SDS011;18343;50.152;8.182;2023-03-14T12:05:59;1.80;;;0.30;;
31770;SDS011;18343;50.152;8.182;2023-03-14T12:08:57;0.98;;;0.30;;
31770;SDS011;18343;50.152;8.182;2023-03-14T12:11:46;0.20;;;0.20;;
31770;SDS011;18343;50.152;8.182;2023-03-14T12:14:35;0.63;;;0.28;;
31770;SDS011;18343;50.152;8.182;2023-03-14T12:17:21;2.42;;;0.63;;
31770;SDS011;18343;50.152;8.182;2023-03-14T12:20:15;3.83;;;0.30;;
31770;SDS011;18343;50.152;8.182;2023-03-14T12:23:04;0.50;;;0.50;;
31770;SDS011;18343;50.152;8.182;2023-03-14T12:26:07;0.75;;;0.75;;
31770;SDS011;18343;50.152;8.182;2023-03-14T12:29:11;0.25;;;0.25;;
31770;SDS011;18343;50.152;8.182;2023-03-14T12:32:12;0.85;;;0.43;;
31770;SDS011;18343;50.152;8.182;2023-03-14T12:35:23;2.03;;;1.10;;
31770;SDS011;18343;50.152;8.182;2023-03-14T12:38:23;1.90;;;0.85;;
31770;SDS011;18343;50.152;8.182;2023-03-14T12:41:17;0.82;;;0.63;;
31770;SDS011;18343;50.152;8.182;2023-03-14T12:50:42;0.47;;;0.47;;
31770;SDS011;18343;50.152;8.182;2023-03-14T12:57:09;0.75;;;0.60;;
31770;SDS011;18343;50.152;8.182;2023-03-14T13:00:18;0.40;;;0.40;;
31770;SDS011;18343;50.152;8.182;2023-03-14T13:03:12;0.38;;;0.38;;
31770;SDS011;18343;50.152;8.182;2023-03-14T13:06:04;0.50;;;0.50;;
31770;SDS011;18343;50.152;8.182;2023-03-14T13:08:49;0.50;;;0.50;;
31770;SDS011;18343;50.152;8.182;2023-03-14T13:11:33;0.60;;;0.50;;
31770;SDS011;18343;50.152;8.182;2023-03-14T13:14:18;1.67;;;0.63;;
31770;SDS011;18343;50.152;8.182;2023-03-14T13:17:04;0.45;;;0.45;;
31770;SDS011;18343;50.152;8.182;2023-03-14T13:19:55;0.60;;;0.55;;
31770;SDS011;18343;50.152;8.182;2023-03-14T13:22:45;0.60;;;0.60;;
31770;SDS011;18343;50.152;8.182;2023-03-14T13:25:32;0.80;;;0.50;;
31770;SDS011;18343;50.152;8.182;2023-03-14T13:28:19;0.55;;;0.50;;
31770;SDS011;18343;50.152;8.182;2023-03-14T13:31:04;2.60;;;0.50;;
31770;SDS011;18343;50.152;8.182;2023-03-14T13:34:00;0.85;;;0.63;;
31770;SDS011;18343;50.152;8.182;2023-03-14T13:36:51;0.68;;;0.40;;
31770;SDS011;18343;50.152;8.182;2023-03-14T13:39:40;1.17;;;0.52;;
31770;SDS011;18343;50.152;8.182;2023-03-14T13:42:25;0.20;;;0.20;;
31770;SDS011;18343;50.152;8.182;2023-03-14T13:45:12;1.55;;;0.70;;
31770;SDS011;18343;50.152;8.182;2023-03-14T13:47:58;0.20;;;0.20;;
31770;SDS011;18343;50.152;8.182;2023-03-14T13:50:47;1.58;;;0.45;;
31770;SDS011;18343;50.152;8.182;2023-03-14T13:53:42;2.33;;;0.32;;
31770;SDS011;18343;50.152;8.182;2023-03-14T13:56:28;0.17;;;0.17;;
31770;SDS011;18343;50.152;8.182;2023-03-14T13:59:22;1.75;;;0.43;;
31770;SDS011;18343;50.152;8.182;2023-03-14T14:02:10;2.30;;;1.33;;
31770;SDS011;18343;50.152;8.182;2023-03-14T14:04:57;1.17;;;0.60;;
31770;SDS011;18343;50.152;8.182;2023-03-14T14:07:45;1.13;;;0.30;;
31770;SDS011;18343;50.152;8.182;2023-03-14T14:10:30;0.32;;;0.30;;
31770;SDS011;18343;50.152;8.182;2023-03-14T14:13:20;1.60;;;0.30;;
31770;SDS011;18343;50.152;8.182;2023-03-14T14:16:08;0.45;;;0.40;;
31770;SDS011;18343;50.152;8.182;2023-03-14T14:18:53;0.10;;;0.10;;
31770;SDS011;18343;50.152;8.182;2023-03-14T14:21:40;0.63;;;0.50;;
31770;SDS011;18343;50.152;8.182;2023-03-14T14:24:28;0.60;;;0.50;;
31770;SDS011;18343;50.152;8.182;2023-03-14T14:27:15;0.50;;;0.43;;
31770;SDS011;18343;50.152;8.182;2023-03-14T14:30:03;3.03;;;0.40;;
31770;SDS011;18343;50.152;8.182;2023-03-14T14:33:12;0.88;;;0.55;;
31770;SDS011;18343;50.152;8.182;2023-03-14T14:36:04;0.50;;;0.30;;
31770;SDS011;18343;50.152;8.182;2023-03-14T14:38:58;0.45;;;0.45;;
31770;SDS011;18343;50.152;8.182;2023-03-14T14:41:49;0.95;;;0.50;;
31770;SDS011;18343;50.152;8.182;2023-03-14T14:44:36;0.50;;;0.45;;
31770;SDS011;18343;50.152;8.182;2023-03-14T14:47:21;0.77;;;0.45;;
31770;SDS011;18343;50.152;8.182;2023-03-14T14:50:20;0.35;;;0.30;;
31770;SDS011;18343;50.152;8.182;2023-03-14T14:53:19;1.25;;;0.20;;
31770;SDS011;18343;50.152;8.182;2023-03-14T14:56:13;0.45;;;0.30;;
31770;SDS011;18343;50.152;8.182;2023-03-14T15:01:48;0.28;;;0.28;;
31770;SDS011;18343;50.152;8.182;2023-03-14T15:04:33;1.20;;;0.50;;
31770;SDS011;18343;50.152;8.182;2023-03-14T15:07:17;2.13;;;0.68;;
31770;SDS011;18343;50.152;8.182;2023-03-14T15:10:02;0.20;;;0.20;;
31770;SDS011;18343;50.152;8.182;2023-03-14T15:12:47;1.08;;;0.35;;
31770;SDS011;18343;50.152;8.182;2023-03-14T15:15:33;0.40;;;0.35;;
31770;SDS011;18343;50.152;8.182;2023-03-14T15:18:22;0.80;;;0.50;;
31770;SDS011;18343;50.152;8.182;2023-03-14T15:21:09;1.08;;;0.60;;
31770;SDS011;18343;50.152;8.182;2023-03-14T15:23:54;0.90;;;0.60;;
31770;SDS011;18343;50.152;8.182;2023-03-14T15:26:42;1.00;;;0.70;;
31770;SDS011;18343;50.152;8.182;2023-03-14T15:29:26;1.77;;;0.90;;
31770;SDS011;18343;50.152;8.182;2023-03-14T15:32:13;2.17;;;1.40;;
31770;SDS011;18343;50.152;8.182;2023-03-14T15:35:00;1.77;;;1.15;;
31770;SDS011;18343;50.152;8.182;2023-03-14T15:37:44;1.33;;;1.02;;
31770;SDS011;18343;50.152;8.182;2023-03-14T15:40:28;0.77;;;0.70;;
31770;SDS011;18343;50.152;8.182;2023-03-14T15:43:14;0.85;;;0.80;;
31770;SDS011;18343;50.152;8.182;2023-03-14T15:45:59;1.27;;;1.00;;
31770;SDS011;18343;50.152;8.182;2023-03-14T15:48:45;0.80;;;0.80;;
31770;SDS011;18343;50.152;8.182;2023-03-14T15:51:30;1.08;;;0.77;;
31770;SDS011;18343;50.152;8.182;2023-03-14T15:54:14;1.63;;;0.95;;
31770;SDS011;18343;50.152;8.182;2023-03-14T15:56:59;1.23;;;0.98;;
31770;SDS011;18343;50.152;8.182;2023-03-14T15:59:43;0.98;;;0.88;;
31770;SDS011;18343;50.152;8.182;2023-03-14T16:02:28;1.00;;;0.75;;
31770;SDS011;18343;50.152;8.182;2023-03-14T16:05:14;1.05;;;0.80;;
31770;SDS011;18343;50.152;8.182;2023-03-14T16:07:59;1.63;;;0.90;;
31770;SDS011;18343;50.152;8.182;2023-03-14T16:10:44;1.90;;;0.73;;
31770;SDS011;18343;50.152;8.182;2023-03-14T16:13:29;0.85;;;0.63;;
31770;SDS011;18343;50.152;8.182;2023-03-14T16:16:14;1.25;;;0.60;;
31770;SDS011;18343;50.152;8.182;2023-03-14T16:18:58;2.33;;;0.80;;
31770;SDS011;18343;50.152;8.182;2023-03-14T16:21:45;1.40;;;0.73;;
31770;SDS011;18343;50.152;8.182;2023-03-14T16:24:30;1.77;;;1.00;;
31770;SDS011;18343;50.152;8.182;2023-03-14T16:27:15;1.33;;;0.45;;
31770;SDS011;18343;50.152;8.182;2023-03-14T16:29:59;1.95;;;0.80;;
31770;SDS011;18343;50.152;8.182;2023-03-14T16:32:45;2.65;;;0.98;;
31770;SDS011;18343;50.152;8.182;2023-03-14T16:35:29;1.23;;;0.70;;
31770;SDS011;18343;50.152;8.182;2023-03-14T16:38:15;3.03;;;1.25;;
31770;SDS011;18343;50.152;8.182;2023-03-14T16:41:00;3.28;;;1.25;;
31770;SDS011;18343;50.152;8.182;2023-03-14T16:43:47;0.20;;;0.20;;
31770;SDS011;18343;50.152;8.182;2023-03-14T16:46:32;0.98;;;0.70;;
31770;SDS011;18343;50.152;8.182;2023-03-14T16:49:16;0.93;;;0.50;;
31770;SDS011;18343;50.152;8.182;2023-03-14T16:52:01;4.05;;;0.57;;
31770;SDS011;18343;50.152;8.182;2023-03-14T16:54:48;1.40;;;0.82;;
31770;SDS011;18343;50.152;8.182;2023-03-14T16:57:32;1.65;;;0.50;;
31770;SDS011;18343;50.152;8.182;2023-03-14T17:00:18;0.38;;;0.30;;
31770;SDS011;18343;50.152;8.182;2023-03-14T17:03:04;1.48;;;0.30;;
31770;SDS011;18343;50.152;8.182;2023-03-14T17:05:49;0.20;;;0.20;;
31770;SDS011;18343;50.152;8.182;2023-03-14T17:08:37;1.02;;;0.35;;